METAR AND TAF INFORMATION
METAR FOR EBLG
ADDS - METARS form results

(0410 UTC 26 August 2019)
Data provider http://aviationweather.gov/metar/data/
 
METAR text: EBLG 260350Z 13003KT CAVOK 19/14 Q1019 NOSIG
Conditions at: EBLG (BIERSET/LIEGE (C, BE) observed 0350 UTC 26 August 2019
Temperature: 19.0°C (66°F)
Dewpoint: 14.0°C (57°F) [RH = 73%]
Pressure (altimeter): 30.09 inches Hg (1019.0 mb)
Winds: from the SE (130 degrees) at 3 MPH (3 knots; 1.5 m/s)
Visibility: 6 or more miles (10+ km)
Ceiling: ceiling and visibility are OK
Clouds: unknown
Weather: no significant weather observed at this time

METAR text: EBLG 260320Z VRB02KT CAVOK 19/14 Q1019 NOSIG
Conditions at: EBLG (BIERSET/LIEGE (C, BE) observed 0320 UTC 26 August 2019
Temperature: 19.0°C (66°F)
Dewpoint: 14.0°C (57°F) [RH = 73%]
Pressure (altimeter): 30.09 inches Hg (1019.0 mb)
Winds: variable direction winds at 2 MPH (2 knots; 1.0 m/s)
Visibility: 6 or more miles (10+ km)
Ceiling: ceiling and visibility are OK
Clouds: unknown
Weather: no significant weather observed at this time

Forecast for: EBLG (BIERSET/LIEGE (C, BE)
Text: TAF EBLG 252313Z 2600/2706 VRB02KT CAVOK
Forecast period: 0000 UTC 26 August 2019 to 0600 UTC 27 August 2019
Forecast type: FROM: standard forecast or significant change
Winds: variable direction winds at 2 MPH (2 knots; 1.0 m/s)
Visibility: 6 or more miles 10+ km)
Ceiling: unknown
Clouds: missing
Weather: NSW  (no significant weather)

 AIRPORT MAP

 RUNWAY INFORMATION

 AIRPORT FREQUENCIES
Type A/D Name APP Frequency 119.275 MHZ
Type ATIS Name ATIS Frequency 126.25 MHZ
Type CLD Name CLNC DEL Frequency 121.8 MHZ
Type GND Name GND Frequency 121.925 MHZ
Type TWR Name TWR Frequency 129.25 MHZ

 AIRPORT NEAR NAVIGATION AIDS
Type NDB Name Liege Frequency 349 KHZ
Type VOR-DME Name Liege Frequency 115450 KHZ
Type NDB Name Liege Frequency 290 KHZ



2018 Air Astana Virtual Airline